Arlington, OH

6:42 AM EDT on July 24, 2014 (GMT -0400)
KOHARLIN2 Elev 850 ft | 40.87 °N, 83.66 °W | Change Station

Current weather conditions updated 9 seconds ago

Clear
Clear
54.4 °F
Feels Like 54.4 °F
N
5.0
Wind Variable Wind from NW
Gusts 9.0 mph

Today is forecast to be Cooler than yesterday.

Today
High -- | Low -- °F
--% Chance of Precip.
Yesterday
High -- | Low -- °F
Precip. -- in
6:23 AM 8:58 PM
Waning Crescent, 6% visible
Pressure 30.05 in
Visibility 10.0 miles
Clouds Clear
Dew Point 53 °F
Humidity 94%
Rainfall 0.00 in
Snow Depth Not available.
UV 0 out of 12
Pollen 6.10 out of 12
Air Quality Not available.
Flu Activity Not available.
METAR KFDY 240953Z AUTO 31005KT 10SM CLR 13/12 A3006 RMK AO2 SLP175 T01330117

More Conditions Fewer Conditions

Pressure 30.05 in
Visibility 10.0 miles
Clouds Clear
Dew Point 53 °F
Humidity 94%
Rainfall 0.00 in
Snow Depth Not available.
UV 0 out of 12
Pollen 6.10 out of 12
Air Quality Not available.
Flu Activity Not available.
METAR KFDY 240953Z AUTO 31005KT 10SM CLR 13/12 A3006 RMK AO2 SLP175 T01330117

More Conditions Fewer Conditions

10-Day Weather Forecast

Almanac

Astronomy

Jul. 24, 2014 Rise Set
Actual Time 6:23 AM EDT 8:58 PM EDT
Civil Twilight 5:51 AM EDT 9:29 PM EDT
Nautical Twilight 5:12 AM EDT 10:09 PM EDT
Astronomical Twilight 4:27 AM EDT 10:53 PM EDT
Moon 4:30 AM EDT 7:12 PM EDT
Length of Visible Light 15h 38m
Length of Day
14h 35m
Tomorrow will be 1m 49s shorter.
Waning Crescent, 6% of the Moon is Illuminated
Today
Waning Crescent
Jul 26
New
Aug 3
First Quarter
Aug 10
Full
Aug 17
Last Quarter

Today's Extremes

State Highs State Lows

Community

WunderPhotos

Upload Photos

1,736,966 photos uploaded!

Nearby

Snow Depth

Station Depth Elevation
No new snow has been reported.

Earthquake Activity

City Distance Mag. Time & Date
No recent earthquake activity has been reported nearby.
Minimum magnitude displayed is 2.5.

Coastal Water Temperatures

Place Temperature
No Stations Reporting

Nearby Weather Stations

Station Location Temp. Dew Point Humidity Wind Precip. Elev Updated Type
ARLINGTON, OH 54.4 °F 53 °F 94% NW  at  5.0 mph 0.00 in / hr 850 ft 6:42 AM EDT Rapid Fire
Winterwood, Findlay, OH 55.6 °F 55 °F 99% NE  at  0.0 mph 0.00 in / hr 794 ft 6:42 AM EDT Rapid Fire
Findlay, Findlay, OH 54.9 °F 54 °F 95% ESE  at  0.0 mph 0.00 in / hr 814 ft 6:33 AM EDT Normal
Ada, Ada, OH 53.2 °F 53 °F 98% North  at  0.0 mph 0.00 in / hr 912 ft 6:42 AM EDT Rapid Fire
Arcadia Ohio Williesweather, ARCADIA, OH 52.8 °F 52 °F 98% NNW  at  4.0 mph 0.00 in / hr 820 ft 6:42 AM EDT Rapid Fire
APRSWXNET Leipsic OH , Leipsic, OH 55 °F 52 °F 91% NNW  at  4 mph 0.00 in / hr 784 ft 5:43 AM EDT MADIS

Show More Stations Show Fewer Stations